Time;durP1;ratioP1;P1;durP2;ratioP2;P2;SDS_P1;SDS_P2;PMS_P1;PMS_P2;Temp;Humidity;BMP_temperature;BMP_pressure;BME280_temperature;BME280_humidity;BME280_pressure;Samples;Min_cycle;Max_cycle;Signal;HPM_P1;HPM_P2
2022/10/19 04:17:58;;;;;;;;;;;21.90;99.90;;;;;;5099214;27;19928;-72
2022/10/19 04:20:25;;;;;;;;;;;21.80;99.90;;;;;;5067213;28;19913;-73
2022/10/19 04:22:54;;;;;;;;;;;21.80;99.90;;;;;;5066839;28;20004;-69
2022/10/19 04:25:21;;;;;;;;;;;21.70;99.90;;;;;;5066698;28;19917;-70
2022/10/19 04:27:48;;;;;;;;;;;21.70;99.90;;;;;;5066906;28;20035;-70
2022/10/19 04:30:14;;;;;;;;;;;21.80;99.90;;;;;;5068793;28;19913;-71
2022/10/19 04:32:41;;;;;;;;;;;21.90;99.90;;;;;;5068619;28;19915;-70
2022/10/19 04:35:07;;;;;;;;;;;21.90;99.90;;;;;;5068605;28;19916;-68
2022/10/19 04:37:34;;;;;;;;;;;21.80;99.90;;;;;;5068223;28;19927;-72
2022/10/19 04:40:01;;;;;;;;;;;21.90;99.90;;;;;;5067589;28;19915;-71
2022/10/19 04:42:27;;;;;;;;;;;21.90;99.90;;;;;;5068771;28;19916;-73
2022/10/19 04:44:54;;;;;;;;;;;21.80;99.90;;;;;;5068644;28;19912;-72
2022/10/19 04:47:21;;;;;;;;;;;21.80;99.90;;;;;;5068387;28;20363;-70
2022/10/19 04:49:47;;;;;;;;;;;21.70;99.90;;;;;;5068578;28;20118;-71
2022/10/19 04:52:14;;;;;;;;;;;21.60;99.90;;;;;;5068587;28;20381;-70
2022/10/19 04:54:41;;;;;;;;;;;21.50;99.90;;;;;;5067546;28;19908;-71
2022/10/19 04:57:07;;;;;;;;;;;21.50;99.90;;;;;;5068125;28;19982;-74
2022/10/19 04:59:34;;;;;;;;;;;21.60;99.90;;;;;;5068541;28;19920;-73
2022/10/19 05:02:01;;;;;;;;;;;21.60;99.90;;;;;;5068348;28;19909;-72
2022/10/19 05:04:27;;;;;;;;;;;21.60;99.90;;;;;;5068326;28;19909;-71
2022/10/19 05:06:54;;;;;;;;;;;21.50;99.90;;;;;;5067835;28;19913;-71
2022/10/19 05:09:21;;;;;;;;;;;21.50;99.90;;;;;;5067274;28;19908;-72
2022/10/19 05:11:50;;;;;;;;;;;21.60;99.90;;;;;;5068198;28;19913;-74
2022/10/19 05:14:17;;;;;;;;;;;21.60;99.90;;;;;;5068262;28;20363;-70
2022/10/19 05:16:43;;;;;;;;;;;21.50;99.90;;;;;;5067339;28;19957;-73
2022/10/19 05:19:12;;;;;;;;;;;21.50;99.90;;;;;;5068106;28;19913;-74
2022/10/19 05:21:39;;;;;;;;;;;21.50;99.90;;;;;;5068091;28;20036;-71
2022/10/19 05:24:05;;;;;;;;;;;21.40;99.90;;;;;;5066938;28;20377;-73
2022/10/19 05:26:32;;;;;;;;;;;21.40;99.90;;;;;;5067701;28;19909;-72
2022/10/19 05:29:03;;;;;;;;;;;21.40;99.90;;;;;;5056327;28;19921;-71
2022/10/19 05:31:31;;;;;;;;;;;21.30;99.90;;;;;;5054625;28;20008;-73
2022/10/19 05:33:58;;;;;;;;;;;21.30;99.90;;;;;;5054775;28;19912;-72
2022/10/19 05:36:31;;;;;;;;;;;21.30;99.90;;;;;;5054059;28;20437;-72
2022/10/19 05:38:57;;;;;;;;;;;21.30;99.90;;;;;;5053068;28;20337;-73
2022/10/19 05:41:25;;;;;;;;;;;21.20;99.90;;;;;;5054497;28;19970;-72
2022/10/19 05:43:52;;;;;;;;;;;21.20;99.90;;;;;;5054455;28;20352;-70
2022/10/19 05:46:19;;;;;;;;;;;21.10;99.90;;;;;;5053886;28;19920;-72
2022/10/19 05:48:46;;;;;;;;;;;21.10;99.90;;;;;;5053951;28;19913;-71
2022/10/19 05:51:14;;;;;;;;;;;21.10;99.90;;;;;;5052645;28;19970;-70
2022/10/19 05:53:41;;;;;;;;;;;21.10;99.90;;;;;;5051781;28;20675;-73
2022/10/19 05:56:12;;;;;;;;;;;21.00;99.90;;;;;;5051759;28;20275;-73
2022/10/19 05:58:38;;;;;;;;;;;21.00;99.90;;;;;;5052000;28;20004;-70
2022/10/19 06:01:05;;;;;;;;;;;20.90;99.90;;;;;;5052058;28;19912;-72
2022/10/19 06:03:32;;;;;;;;;;;20.90;99.90;;;;;;5051948;28;19931;-70
2022/10/19 06:06:01;;;;;;;;;;;20.90;99.90;;;;;;5051209;28;19921;-74
2022/10/19 06:08:28;;;;;;;;;;;20.90;99.90;;;;;;5050760;28;19917;-70
2022/10/19 06:13:59;;;;;;;;;;;21.00;99.90;;;;;;5052037;28;20358;-71
2022/10/19 06:16:27;;;;;;;;;;;21.00;99.90;;;;;;5051229;28;19920;-73
2022/10/19 06:18:54;;;;;;;;;;;20.90;99.90;;;;;;5050960;28;20003;-73
2022/10/19 06:21:22;;;;;;;;;;;21.00;99.90;;;;;;5051527;28;19909;-73
2022/10/19 06:23:56;;;;;;;;;;;21.00;99.90;;;;;;5050510;28;20276;-73
2022/10/19 06:26:23;;;;;;;;;;;20.90;99.90;;;;;;5051488;28;19917;-72
2022/10/19 06:28:50;;;;;;;;;;;20.90;99.90;;;;;;5051269;28;20286;-70
2022/10/19 06:31:17;;;;;;;;;;;20.90;99.90;;;;;;5051133;28;19941;-74
2022/10/19 06:33:45;;;;;;;;;;;20.80;99.90;;;;;;5051358;28;19998;-71
2022/10/19 06:36:13;;;;;;;;;;;20.80;99.90;;;;;;5049939;28;20012;-72
2022/10/19 06:38:40;;;;;;;;;;;20.80;99.90;;;;;;5048399;28;19925;-74
2022/10/19 06:41:07;;;;;;;;;;;20.80;99.90;;;;;;5050696;28;19947;-73
2022/10/19 06:43:34;;;;;;;;;;;20.80;99.90;;;;;;5051223;28;19912;-72
2022/10/19 06:46:04;;;;;;;;;;;20.70;99.90;;;;;;5051142;28;19913;-68
2022/10/19 06:48:31;;;;;;;;;;;20.70;99.90;;;;;;5051016;28;19935;-69
2022/10/19 06:51:02;;;;;;;;;;;20.70;99.90;;;;;;5051130;28;19916;-75
2022/10/19 06:53:30;;;;;;;;;;;20.60;99.90;;;;;;5049768;28;19921;-69
2022/10/19 06:55:58;;;;;;;;;;;20.60;99.90;;;;;;5050527;28;19966;-71
2022/10/19 06:58:25;;;;;;;;;;;20.60;99.90;;;;;;5050709;28;20382;-72
2022/10/19 07:00:58;;;;;;;;;;;20.60;99.90;;;;;;5050535;28;19912;-72
2022/10/19 07:03:25;;;;;;;;;;;20.50;99.90;;;;;;5050769;28;20371;-74
2022/10/19 07:05:59;;;;;;;;;;;20.50;99.90;;;;;;5050423;28;20438;-69
2022/10/19 07:08:27;;;;;;;;;;;20.40;99.90;;;;;;5050767;28;19917;-71
2022/10/19 07:10:54;;;;;;;;;;;20.30;99.90;;;;;;5050034;28;19909;-73
2022/10/19 07:13:21;;;;;;;;;;;20.40;99.90;;;;;;5050607;28;20007;-68
2022/10/19 07:15:48;;;;;;;;;;;20.30;99.90;;;;;;5050008;28;20595;-72
2022/10/19 07:18:15;;;;;;;;;;;20.30;99.90;;;;;;5050422;28;19970;-74
2022/10/19 07:20:41;;;;;;;;;;;20.30;99.90;;;;;;5049286;28;19915;-71
2022/10/19 07:23:08;;;;;;;;;;;20.30;99.90;;;;;;5049971;28;19917;-72
2022/10/19 07:25:35;;;;;;;;;;;20.30;99.90;;;;;;5050125;28;19913;-71
2022/10/19 07:28:02;;;;;;;;;;;20.30;99.90;;;;;;5049842;28;19913;-73
2022/10/19 07:30:29;;;;;;;;;;;20.30;99.90;;;;;;5050394;28;20361;-72
2022/10/19 07:32:56;;;;;;;;;;;20.30;99.90;;;;;;5049982;28;19913;-70
2022/10/19 07:35:22;;;;;;;;;;;20.30;99.90;;;;;;5050122;28;19978;-72
2022/10/19 07:37:49;;;;;;;;;;;20.30;99.90;;;;;;5048823;28;19936;-71
2022/10/19 07:40:15;;;;;;;;;;;20.30;99.90;;;;;;5049644;28;19912;-71
2022/10/19 07:42:42;;;;;;;;;;;20.30;99.90;;;;;;5049794;28;20386;-67
2022/10/19 07:45:09;;;;;;;;;;;20.30;99.90;;;;;;5050158;28;19917;-68
2022/10/19 07:47:36;;;;;;;;;;;20.20;99.90;;;;;;5049826;28;19956;-70
2022/10/19 07:50:02;;;;;;;;;;;20.20;99.90;;;;;;5049641;28;19913;-72
2022/10/19 07:52:29;;;;;;;;;;;20.20;99.90;;;;;;5049155;28;19920;-69
2022/10/19 07:54:56;;;;;;;;;;;20.10;99.90;;;;;;5049960;28;19952;-73
2022/10/19 07:57:22;;;;;;;;;;;20.10;99.90;;;;;;5049600;28;19928;-72
2022/10/19 07:59:49;;;;;;;;;;;20.10;99.90;;;;;;5048783;28;19919;-68
2022/10/19 08:02:16;;;;;;;;;;;20.00;99.90;;;;;;5030302;28;19909;-73
2022/10/19 08:04:43;;;;;;;;;;;19.90;99.90;;;;;;5030204;28;20490;-69
2022/10/19 08:07:10;;;;;;;;;;;19.90;99.90;;;;;;5047336;28;20015;-73
2022/10/19 08:09:37;;;;;;;;;;;19.80;99.90;;;;;;5048927;28;20694;-74
2022/10/19 08:12:04;;;;;;;;;;;19.80;99.90;;;;;;5051915;28;19908;-69
2022/10/19 08:14:31;;;;;;;;;;;19.80;99.90;;;;;;5052059;28;19920;-69
2022/10/19 08:16:57;;;;;;;;;;;19.80;99.90;;;;;;5051187;28;20351;-73
2022/10/19 08:19:24;;;;;;;;;;;19.80;99.90;;;;;;5051904;28;19915;-71
2022/10/19 08:21:51;;;;;;;;;;;19.80;99.90;;;;;;5050320;28;19916;-71
2022/10/19 08:24:19;;;;;;;;;;;19.70;99.90;;;;;;5052259;28;20050;-74
2022/10/19 08:26:49;;;;;;;;;;;19.70;99.90;;;;;;5043111;28;20389;-69
2022/10/19 08:29:17;;;;;;;;;;;19.70;99.90;;;;;;5043966;28;19912;-68
2022/10/19 08:31:45;;;;;;;;;;;19.70;99.90;;;;;;5043962;28;20322;-67
2022/10/19 08:34:12;;;;;;;;;;;19.60;99.90;;;;;;5041441;28;19916;-73
2022/10/19 08:36:39;;;;;;;;;;;19.60;99.90;;;;;;5042782;28;19933;-76
2022/10/19 08:39:07;;;;;;;;;;;19.60;99.90;;;;;;5043163;28;20366;-75
2022/10/19 08:41:37;;;;;;;;;;;19.60;99.90;;;;;;5043809;28;19970;-76
2022/10/19 08:44:22;;;;;;;;;;;19.60;99.90;;;;;;5044046;28;20003;-69
2022/10/19 08:46:57;;;;;;;;;;;19.60;99.90;;;;;;5042564;28;19917;-71
2022/10/19 08:49:25;;;;;;;;;;;19.60;99.90;;;;;;5043698;28;19917;-70
2022/10/19 08:51:57;;;;;;;;;;;19.60;99.90;;;;;;5043583;28;20374;-72
2022/10/19 08:54:24;;;;;;;;;;;19.50;99.90;;;;;;5043793;28;20397;-66
2022/10/19 08:57:08;;;;;;;;;;;19.50;99.90;;;;;;5042971;28;19921;-69
2022/10/19 08:59:39;;;;;;;;;;;19.40;99.90;;;;;;5043587;28;19916;-68
2022/10/19 09:02:09;;;;;;;;;;;19.50;99.90;;;;;;5042120;28;20375;-70
2022/10/19 09:04:37;;;;;;;;;;;19.40;99.90;;;;;;5046073;28;19920;-74
2022/10/19 09:07:09;;;;;;;;;;;19.40;99.90;;;;;;5047489;28;19913;-73
2022/10/19 09:09:41;;;;;;;;;;;19.40;99.90;;;;;;5047791;28;19913;-68
2022/10/19 09:12:11;;;;;;;;;;;19.40;99.90;;;;;;5047626;28;19936;-73
2022/10/19 09:14:51;;;;;;;;;;;19.40;99.90;;;;;;5047408;28;20407;-68
2022/10/19 09:17:18;;;;;;;;;;;19.30;99.90;;;;;;5046108;28;19937;-68
2022/10/19 09:19:45;;;;;;;;;;;19.30;99.90;;;;;;5047071;28;19916;-73
2022/10/19 09:22:24;;;;;;;;;;;19.30;99.90;;;;;;5047338;28;20664;-69
2022/10/19 09:25:00;;;;;;;;;;;19.30;99.90;;;;;;5049702;28;19909;-67
2022/10/19 09:27:34;;;;;;;;;;;19.30;99.90;;;;;;5050876;28;19920;-70
2022/10/19 09:30:03;;;;;;;;;;;19.30;99.90;;;;;;5049891;28;20475;-67
2022/10/19 09:32:35;;;;;;;;;;;19.30;99.90;;;;;;5052713;28;19913;-68
2022/10/19 09:35:06;;;;;;;;;;;19.30;99.90;;;;;;5053109;28;19913;-73
2022/10/19 09:37:36;;;;;;;;;;;19.30;99.90;;;;;;5052722;28;19917;-68
2022/10/19 09:40:03;;;;;;;;;;;19.30;99.90;;;;;;5053153;28;19909;-71
2022/10/19 09:42:35;;;;;;;;;;;19.30;99.90;;;;;;5051998;28;19928;-68
2022/10/19 09:45:11;;;;;;;;;;;19.30;99.90;;;;;;5051538;28;19909;-69
2022/10/19 09:47:40;;;;;;;;;;;19.30;99.90;;;;;;5052556;28;19916;-73
2022/10/19 09:50:08;;;;;;;;;;;19.40;99.90;;;;;;5052976;28;20346;-69
2022/10/19 09:52:38;;;;;;;;;;;19.40;99.90;;;;;;5052676;28;19939;-71
2022/10/19 09:55:18;;;;;;;;;;;19.40;99.90;;;;;;5052819;28;19940;-71
2022/10/19 09:57:45;;;;;;;;;;;19.40;99.90;;;;;;5050835;28;19924;-67
2022/10/19 10:00:19;;;;;;;;;;;19.50;99.90;;;;;;5052963;28;19917;-69
2022/10/19 10:02:49;;;;;;;;;;;19.40;99.90;;;;;;5052287;28;19964;-73
2022/10/19 10:05:16;;;;;;;;;;;19.40;99.90;;;;;;5052860;28;19909;-70
2022/10/19 10:07:43;;;;;;;;;;;19.40;99.90;;;;;;5052486;28;19931;-72
2022/10/19 10:10:10;;;;;;;;;;;19.40;99.90;;;;;;5052189;28;19909;-71
2022/10/19 10:12:39;;;;;;;;;;;19.40;99.90;;;;;;5051246;28;19909;-67
2022/10/19 10:15:06;;;;;;;;;;;19.40;99.90;;;;;;5052037;28;19938;-74
2022/10/19 10:17:35;;;;;;;;;;;19.40;99.90;;;;;;5051639;28;19928;-70
2022/10/19 10:20:05;;;;;;;;;;;19.30;99.90;;;;;;5052269;28;20301;-71
2022/10/19 10:22:33;;;;;;;;;;;19.30;99.90;;;;;;5050783;28;20291;-74
2022/10/19 10:25:00;;;;;;;;;;;19.30;99.90;;;;;;5051871;28;20375;-73
2022/10/19 10:27:34;;;;;;;;;;;19.30;99.90;;;;;;5047973;28;20347;-78
2022/10/19 10:30:05;;;;;;;;;;;19.30;99.90;;;;;;5045603;28;19913;-72
2022/10/19 10:32:35;;;;;;;;;;;19.30;99.90;;;;;;5045614;28;20015;-69
2022/10/19 10:35:03;;;;;;;;;;;19.30;99.90;;;;;;5045682;28;19919;-72
2022/10/19 10:37:36;;;;;;;;;;;19.20;99.90;;;;;;5045041;28;19921;-74
2022/10/19 10:40:03;;;;;;;;;;;19.20;99.90;;;;;;5045525;28;19912;-75
2022/10/19 10:42:41;;;;;;;;;;;19.20;99.90;;;;;;5043176;28;20051;-69
2022/10/19 10:45:27;;;;;;;;;;;19.20;99.90;;;;;;5045532;28;19917;-75
2022/10/19 10:47:54;;;;;;;;;;;19.20;99.90;;;;;;5044876;28;19919;-68
2022/10/19 10:50:26;;;;;;;;;;;19.20;99.90;;;;;;5044835;28;19950;-73
2022/10/19 10:53:06;;;;;;;;;;;19.30;99.90;;;;;;5045097;28;20521;-74
2022/10/19 10:55:34;;;;;;;;;;;19.30;99.90;;;;;;5043902;28;19916;-76
2022/10/19 10:58:21;;;;;;;;;;;19.30;99.90;;;;;;5045086;28;19920;-72
2022/10/19 11:00:48;;;;;;;;;;;19.30;99.90;;;;;;5044707;28;19935;-74
2022/10/19 11:03:18;;;;;;;;;;;19.30;99.90;;;;;;5044662;28;19912;-76
2022/10/19 11:05:46;;;;;;;;;;;19.30;99.90;;;;;;5044917;28;20030;-76
2022/10/19 11:08:17;;;;;;;;;;;19.30;99.90;;;;;;5045166;28;19935;-68
2022/10/19 11:10:56;;;;;;;;;;;19.30;99.90;;;;;;5044202;28;20055;-71
2022/10/19 11:13:23;;;;;;;;;;;19.30;99.90;;;;;;5045473;28;19913;-74
2022/10/19 11:16:08;;;;;;;;;;;19.30;99.90;;;;;;5043880;28;20303;-75
2022/10/19 11:18:39;;;;;;;;;;;19.30;99.90;;;;;;5044616;28;19913;-70
2022/10/19 11:21:12;;;;;;;;;;;19.20;99.90;;;;;;5044984;28;19913;-74
2022/10/19 11:23:51;;;;;;;;;;;19.20;99.90;;;;;;5044476;28;19913;-67
2022/10/19 11:26:35;;;;;;;;;;;19.20;99.90;;;;;;5042844;28;20698;-71
2022/10/19 11:29:18;;;;;;;;;;;19.20;99.90;;;;;;5044408;28;19912;-78
2022/10/19 11:31:50;;;;;;;;;;;19.20;99.90;;;;;;5044553;28;20000;-74
2022/10/19 11:34:23;;;;;;;;;;;19.20;99.90;;;;;;5044961;28;19935;-73
2022/10/19 11:36:50;;;;;;;;;;;19.20;99.90;;;;;;5043940;28;19925;-72
2022/10/19 11:39:35;;;;;;;;;;;19.20;99.90;;;;;;5043288;28;19943;-68
2022/10/19 11:42:01;;;;;;;;;;;19.20;99.90;;;;;;5024227;28;19920;-68
2022/10/19 11:44:41;;;;;;;;;;;19.20;99.90;;;;;;5024653;28;20054;-77
2022/10/19 11:47:08;;;;;;;;;;;19.20;99.90;;;;;;5024244;28;20389;-75
2022/10/19 11:49:45;;;;;;;;;;;19.20;99.90;;;;;;5024625;28;19921;-73
2022/10/19 11:52:32;;;;;;;;;;;19.10;99.90;;;;;;5024347;28;20652;-74
2022/10/19 11:55:05;;;;;;;;;;;19.10;99.90;;;;;;5032381;28;19923;-76
2022/10/19 11:57:52;;;;;;;;;;;19.10;99.90;;;;;;5043141;28;19931;-69
2022/10/19 12:00:19;;;;;;;;;;;19.20;99.90;;;;;;5043805;28;19913;-67
2022/10/19 12:03:00;;;;;;;;;;;19.10;99.90;;;;;;5044073;28;19917;-72
2022/10/19 12:05:30;;;;;;;;;;;19.10;99.90;;;;;;5043825;28;19960;-74
2022/10/19 12:08:15;;;;;;;;;;;19.00;99.90;;;;;;5047052;28;19919;-73
2022/10/19 12:10:42;;;;;;;;;;;19.00;99.90;;;;;;5047896;28;19923;-75
2022/10/19 12:13:11;;;;;;;;;;;19.00;99.90;;;;;;5050138;28;20254;-77
2022/10/19 12:15:41;;;;;;;;;;;18.90;99.90;;;;;;5050076;28;20378;-71
2022/10/19 12:18:14;;;;;;;;;;;18.90;99.90;;;;;;5050409;28;19927;-77
2022/10/19 12:20:47;;;;;;;;;;;18.90;99.90;;;;;;5049912;28;20406;-73
2022/10/19 12:23:32;;;;;;;;;;;18.90;99.90;;;;;;5050563;28;19939;-76
2022/10/19 12:26:00;;;;;;;;;;;18.90;99.90;;;;;;5050097;28;19931;-72
2022/10/19 12:28:28;;;;;;;;;;;18.80;99.90;;;;;;5050619;28;19908;-68
2022/10/19 12:30:56;;;;;;;;;;;18.80;99.90;;;;;;5050171;28;20112;-71
2022/10/19 12:33:26;;;;;;;;;;;18.80;99.90;;;;;;5050373;28;19913;-68
2022/10/19 12:36:19;;;;;;;;;;;18.80;99.90;;;;;;5049777;28;19920;-71
2022/10/19 12:38:49;;;;;;;;;;;18.80;99.90;;;;;;5043091;28;20036;-73
2022/10/19 12:41:28;;;;;;;;;;;18.80;99.90;;;;;;5053549;28;20268;-71
2022/10/19 12:44:01;;;;;;;;;;;18.80;99.90;;;;;;5054376;28;19928;-71
2022/10/19 12:46:37;;;;;;;;;;;18.80;99.90;;;;;;5053946;28;20595;-74
2022/10/19 12:49:23;;;;;;;;;;;18.80;99.90;;;;;;5054229;28;19944;-72
2022/10/19 12:51:50;;;;;;;;;;;18.80;99.90;;;;;;5054106;28;20366;-71
2022/10/19 12:54:21;;;;;;;;;;;18.80;99.90;;;;;;5053134;28;19917;-74
2022/10/19 12:56:54;;;;;;;;;;;18.70;99.90;;;;;;5053652;28;19976;-78
2022/10/19 12:59:27;;;;;;;;;;;18.70;99.90;;;;;;5054132;28;19916;-77
2022/10/19 13:01:55;;;;;;;;;;;18.80;99.90;;;;;;5053438;28;19934;-75
2022/10/19 13:04:25;;;;;;;;;;;18.80;99.90;;;;;;5054022;28;20591;-74
2022/10/19 13:06:58;;;;;;;;;;;18.70;99.90;;;;;;5053392;28;19951;-77
2022/10/19 13:09:32;;;;;;;;;;;18.70;99.90;;;;;;5052762;28;20023;-79
2022/10/19 13:12:22;;;;;;;;;;;18.70;99.90;;;;;;5054029;28;19959;-74
2022/10/19 13:14:56;;;;;;;;;;;18.70;99.90;;;;;;5053400;28;19909;-76
2022/10/19 13:17:35;;;;;;;;;;;18.70;99.90;;;;;;5053413;28;19924;-74
2022/10/19 13:20:14;;;;;;;;;;;18.70;99.90;;;;;;5054065;28;19944;-76
2022/10/19 13:22:53;;;;;;;;;;;18.70;99.90;;;;;;5052479;28;19920;-75
2022/10/19 13:25:20;;;;;;;;;;;18.70;99.90;;;;;;5053425;28;19917;-74
2022/10/19 13:27:47;;;;;;;;;;;18.70;99.90;;;;;;5053538;28;19917;-72
2022/10/19 13:30:32;;;;;;;;;;;18.70;99.90;;;;;;5054110;28;19912;-72
2022/10/19 13:32:59;;;;;;;;;;;18.70;99.90;;;;;;5052695;28;19920;-74
2022/10/19 13:35:28;;;;;;;;;;;18.80;99.90;;;;;;5053160;28;20635;-77
2022/10/19 13:38:10;;;;;;;;;;;18.80;99.90;;;;;;5053386;28;19923;-73
2022/10/19 13:40:38;;;;;;;;;;;18.90;99.90;;;;;;5052906;28;19913;-72
2022/10/19 13:43:04;;;;;;;;;;;18.90;99.90;;;;;;5053387;28;19952;-73
2022/10/19 13:45:31;;;;;;;;;;;18.90;99.90;;;;;;5048932;28;19924;-77
2022/10/19 13:48:04;;;;;;;;;;;18.90;99.90;;;;;;5053066;28;19909;-69
2022/10/19 13:50:45;;;;;;;;;;;18.80;99.90;;;;;;5053145;28;20333;-73
2022/10/19 13:53:34;;;;;;;;;;;18.80;99.90;;;;;;5052854;28;19909;-69
2022/10/19 13:56:21;;;;;;;;;;;18.80;99.90;;;;;;5052597;28;20015;-74
2022/10/19 13:58:48;;;;;;;;;;;18.80;99.90;;;;;;5051639;28;19962;-71
2022/10/19 14:01:27;;;;;;;;;;;18.80;99.90;;;;;;5052650;28;19917;-73
2022/10/19 14:04:11;;;;;;;;;;;18.80;99.90;;;;;;5052913;28;19920;-73
2022/10/19 14:06:43;;;;;;;;;;;18.80;99.90;;;;;;5051781;28;20011;-68
2022/10/19 14:09:28;;;;;;;;;;;18.90;99.90;;;;;;5052905;28;19912;-69
2022/10/19 14:12:05;;;;;;;;;;;18.90;99.90;;;;;;5052661;28;19916;-71
2022/10/19 14:14:38;;;;;;;;;;;18.90;99.90;;;;;;5051406;28;19956;-74
2022/10/19 14:17:13;;;;;;;;;;;18.90;99.90;;;;;;5051804;28;19931;-71
2022/10/19 14:19:44;;;;;;;;;;;18.80;99.90;;;;;;5052355;28;20345;-75
2022/10/19 14:22:18;;;;;;;;;;;18.90;99.90;;;;;;5052334;28;19920;-74
2022/10/19 14:24:45;;;;;;;;;;;18.90;99.90;;;;;;5052275;28;20422;-72
2022/10/19 14:27:16;;;;;;;;;;;18.80;99.90;;;;;;5051942;28;20000;-73
2022/10/19 14:29:48;;;;;;;;;;;18.90;99.90;;;;;;5051294;28;20342;-70
2022/10/19 14:32:15;;;;;;;;;;;18.80;99.90;;;;;;5051776;28;19913;-70
2022/10/19 14:34:46;;;;;;;;;;;18.90;99.90;;;;;;5051862;28;19913;-71
2022/10/19 14:37:21;;;;;;;;;;;18.80;99.90;;;;;;5051634;28;19928;-74
2022/10/19 14:40:03;;;;;;;;;;;18.80;99.90;;;;;;5052007;28;19923;-68
2022/10/19 14:42:43;;;;;;;;;;;18.80;99.90;;;;;;5050623;28;20513;-67
2022/10/19 14:45:23;;;;;;;;;;;18.80;99.90;;;;;;5050232;28;19917;-68
2022/10/19 14:48:01;;;;;;;;;;;18.80;99.90;;;;;;5051870;28;20287;-74
2022/10/19 14:50:31;;;;;;;;;;;18.80;99.90;;;;;;5050488;28;19940;-70
2022/10/19 14:53:17;;;;;;;;;;;18.80;99.90;;;;;;5336365;22;19983;-69
2022/10/19 14:55:44;;;;;;;;;;;18.80;99.90;;;;;;5008310;28;19992;-69
2022/10/19 14:58:18;;;;;;;;;;;18.70;99.90;;;;;;5011723;28;20366;-69
2022/10/19 15:00:46;;;;;;;;;;;18.70;99.90;;;;;;5010779;28;19916;-68
2022/10/19 15:03:18;;;;;;;;;;;18.70;99.90;;;;;;5011120;28;19909;-71
2022/10/19 15:05:50;;;;;;;;;;;18.70;99.90;;;;;;5011658;28;19914;-71
2022/10/19 15:08:20;;;;;;;;;;;18.70;99.90;;;;;;5011016;28;19913;-71
2022/10/19 15:10:47;;;;;;;;;;;18.60;99.90;;;;;;5011555;28;19917;-71
2022/10/19 15:13:22;;;;;;;;;;;18.60;99.90;;;;;;5010934;28;19913;-71
2022/10/19 15:15:52;;;;;;;;;;;18.60;99.90;;;;;;5011391;28;19945;-68
2022/10/19 15:18:21;;;;;;;;;;;18.60;99.90;;;;;;5011232;28;19947;-74
2022/10/19 15:20:59;;;;;;;;;;;18.50;99.90;;;;;;5010881;28;19910;-68
2022/10/19 15:23:52;;;;;;;;;;;18.50;99.90;;;;;;5010669;28;19976;-72
2022/10/19 15:26:24;;;;;;;;;;;18.50;99.90;;;;;;5010077;28;20366;-73
2022/10/19 15:28:52;;;;;;;;;;;18.50;99.90;;;;;;5011116;28;19917;-73
2022/10/19 15:31:20;;;;;;;;;;;18.50;99.90;;;;;;5012345;28;20383;-70
2022/10/19 15:33:50;;;;;;;;;;;18.50;99.90;;;;;;5012765;28;19923;-71
2022/10/19 15:36:18;;;;;;;;;;;18.50;99.90;;;;;;5012948;28;19920;-68
2022/10/19 15:38:46;;;;;;;;;;;18.50;99.90;;;;;;5013181;28;20264;-71
2022/10/19 15:41:18;;;;;;;;;;;18.50;99.90;;;;;;5012676;28;19935;-72
2022/10/19 15:43:46;;;;;;;;;;;18.40;99.90;;;;;;5012449;28;19914;-69
2022/10/19 15:46:13;;;;;;;;;;;18.40;99.90;;;;;;5012649;28;19913;-68
2022/10/19 15:48:45;;;;;;;;;;;18.40;99.90;;;;;;5019967;28;20327;-67
2022/10/19 15:51:24;;;;;;;;;;;18.40;99.90;;;;;;5032390;28;20317;-66
2022/10/19 15:53:52;;;;;;;;;;;18.40;99.90;;;;;;5031777;28;19925;-74
2022/10/19 15:56:19;;;;;;;;;;;18.50;99.90;;;;;;5032344;28;19919;-67
2022/10/19 15:58:49;;;;;;;;;;;18.40;99.90;;;;;;5032310;28;19936;-74
2022/10/19 16:01:17;;;;;;;;;;;18.50;99.90;;;;;;5032175;28;19959;-69
2022/10/19 16:03:44;;;;;;;;;;;18.50;99.90;;;;;;5031988;28;19912;-68
2022/10/19 16:06:12;;;;;;;;;;;18.50;99.90;;;;;;5032190;28;20006;-67
2022/10/19 16:08:38;;;;;;;;;;;18.50;99.90;;;;;;5032007;28;19912;-68
2022/10/19 16:11:05;;;;;;;;;;;18.50;99.90;;;;;;5031920;28;20274;-67
2022/10/19 16:13:32;;;;;;;;;;;18.50;99.90;;;;;;5031693;28;20004;-76
2022/10/19 16:16:05;;;;;;;;;;;18.50;99.90;;;;;;5032201;28;19913;-69
2022/10/19 16:18:32;;;;;;;;;;;18.50;99.90;;;;;;5032190;28;19972;-68
2022/10/19 16:20:58;;;;;;;;;;;18.40;99.90;;;;;;5032124;28;19917;-67
2022/10/19 16:23:26;;;;;;;;;;;18.40;99.90;;;;;;5031249;28;20582;-69
2022/10/19 16:25:53;;;;;;;;;;;18.40;99.90;;;;;;5032040;28;19909;-70
2022/10/19 16:28:20;;;;;;;;;;;18.40;99.90;;;;;;5032012;28;19913;-71
2022/10/19 16:30:51;;;;;;;;;;;18.40;99.90;;;;;;5031906;28;20024;-72
2022/10/19 16:33:18;;;;;;;;;;;18.40;99.90;;;;;;5031503;28;19909;-73
2022/10/19 16:35:44;;;;;;;;;;;18.30;99.90;;;;;;5031812;28;20304;-71
2022/10/19 16:38:11;;;;;;;;;;;18.30;99.90;;;;;;5031705;28;20359;-69
2022/10/19 16:40:38;;;;;;;;;;;18.30;99.90;;;;;;5031979;28;19909;-67
2022/10/19 16:43:04;;;;;;;;;;;18.30;99.90;;;;;;5031326;28;20284;-71
2022/10/19 16:45:31;;;;;;;;;;;18.40;99.90;;;;;;5031892;28;20432;-74
2022/10/19 16:47:58;;;;;;;;;;;18.30;99.90;;;;;;5031749;28;19963;-68
2022/10/19 16:50:25;;;;;;;;;;;18.40;99.90;;;;;;5031748;28;19959;-74
2022/10/19 16:53:11;;;;;;;;;;;18.30;99.90;;;;;;5031773;28;19910;-68
2022/10/19 16:55:39;;;;;;;;;;;18.40;99.90;;;;;;5031732;28;20370;-71
2022/10/19 16:58:06;;;;;;;;;;;18.40;99.90;;;;;;5031677;28;20355;-78
2022/10/19 17:00:33;;;;;;;;;;;18.40;99.90;;;;;;5031718;28;19918;-71
2022/10/19 17:02:59;;;;;;;;;;;18.40;99.90;;;;;;5031300;28;19917;-70
2022/10/19 17:05:26;;;;;;;;;;;18.40;99.90;;;;;;5031493;28;19909;-77
2022/10/19 17:07:53;;;;;;;;;;;18.30;99.90;;;;;;5031717;28;20363;-79
2022/10/19 17:10:19;;;;;;;;;;;18.30;99.90;;;;;;5031719;28;19991;-76
2022/10/19 17:12:46;;;;;;;;;;;18.30;99.90;;;;;;5031643;28;19913;-72
2022/10/19 17:15:13;;;;;;;;;;;18.30;99.90;;;;;;5031059;28;20371;-72
2022/10/19 17:17:41;;;;;;;;;;;18.30;99.90;;;;;;5031452;28;19959;-73
2022/10/19 17:20:10;;;;;;;;;;;18.30;99.90;;;;;;5031614;28;19909;-71
2022/10/19 17:22:36;;;;;;;;;;;18.30;99.90;;;;;;5031523;28;19992;-71
2022/10/19 17:25:03;;;;;;;;;;;18.30;99.90;;;;;;5033281;28;20417;-75
2022/10/19 17:27:30;;;;;;;;;;;18.20;99.90;;;;;;5035238;28;19918;-71
2022/10/19 17:29:56;;;;;;;;;;;18.20;99.90;;;;;;5035028;28;19913;-75
2022/10/19 17:32:23;;;;;;;;;;;18.20;99.90;;;;;;5034993;28;19944;-68
2022/10/19 17:34:49;;;;;;;;;;;18.30;99.90;;;;;;5034563;28;19913;-72
2022/10/19 17:37:16;;;;;;;;;;;18.30;99.90;;;;;;5034482;28;19917;-72
2022/10/19 17:39:46;;;;;;;;;;;18.30;99.90;;;;;;5034972;28;20465;-75
2022/10/19 17:42:13;;;;;;;;;;;18.40;99.90;;;;;;5034850;28;19996;-73
2022/10/19 17:44:40;;;;;;;;;;;18.40;99.90;;;;;;5034460;28;19924;-69
2022/10/19 17:47:06;;;;;;;;;;;18.40;99.90;;;;;;5034546;28;19909;-71
2022/10/19 17:49:33;;;;;;;;;;;18.50;99.90;;;;;;5034529;28;19910;-73
2022/10/19 17:52:00;;;;;;;;;;;18.50;99.90;;;;;;5034690;28;20335;-73
2022/10/19 17:54:26;;;;;;;;;;;18.50;99.90;;;;;;5034002;28;20282;-69
2022/10/19 17:56:53;;;;;;;;;;;18.50;99.90;;;;;;5034451;28;20295;-77
2022/10/19 17:59:20;;;;;;;;;;;18.50;99.90;;;;;;5034336;28;20436;-70
2022/10/19 18:01:46;;;;;;;;;;;18.50;99.90;;;;;;5034446;28;19915;-69
2022/10/19 18:04:13;;;;;;;;;;;18.40;99.90;;;;;;5034242;28;19916;-76
2022/10/19 18:06:40;;;;;;;;;;;18.40;99.90;;;;;;5034415;28;19917;-77
2022/10/19 18:09:08;;;;;;;;;;;18.40;99.90;;;;;;5034091;28;19909;-71
2022/10/19 18:11:41;;;;;;;;;;;18.40;99.90;;;;;;5034124;28;19964;-72
2022/10/19 18:14:09;;;;;;;;;;;18.40;99.90;;;;;;5033727;28;19910;-77
2022/10/19 18:16:37;;;;;;;;;;;18.40;99.90;;;;;;5034189;28;19917;-75
2022/10/19 18:19:04;;;;;;;;;;;18.40;99.90;;;;;;5033846;28;20050;-78
2022/10/19 18:21:33;;;;;;;;;;;18.40;99.90;;;;;;5034042;28;19909;-77
2022/10/19 18:24:00;;;;;;;;;;;18.50;99.90;;;;;;5033542;28;20329;-77
2022/10/19 18:26:28;;;;;;;;;;;18.50;99.90;;;;;;5033900;28;20028;-71
2022/10/19 18:28:55;;;;;;;;;;;18.50;99.90;;;;;;5034034;28;19936;-71
2022/10/19 18:31:24;;;;;;;;;;;18.50;99.90;;;;;;5033618;28;20290;-77
2022/10/19 18:34:10;;;;;;;;;;;18.50;99.90;;;;;;5033782;28;20008;-73
2022/10/19 18:36:37;;;;;;;;;;;18.50;99.90;;;;;;5034137;28;19978;-76
2022/10/19 18:39:04;;;;;;;;;;;18.50;99.90;;;;;;5033896;28;20321;-69
2022/10/19 18:41:31;;;;;;;;;;;18.50;99.90;;;;;;5033741;28;19971;-78
2022/10/19 18:44:03;;;;;;;;;;;18.50;99.90;;;;;;5034388;28;19909;-77
2022/10/19 18:46:30;;;;;;;;;;;18.50;99.90;;;;;;5035611;28;19917;-70
2022/10/19 18:48:58;;;;;;;;;;;18.60;99.90;;;;;;5034909;28;19909;-77
2022/10/19 18:51:25;;;;;;;;;;;18.50;99.90;;;;;;5033802;28;19910;-75
2022/10/19 18:53:52;;;;;;;;;;;18.50;99.90;;;;;;5032614;28;19924;-68